Terminal Aerodrome Forecast
Issued by NWS Portland, OR

Current Version | Previous Version | Text Only | Print | Product List | Glossary On
Versions: 1 2 3 4 5 6 7 8 9 10 11 12 13 14 15 16 17 18 19 20 21 22 23 24 25 26 27 28 29 30 31 32
000
FTUS46 KPQR 021130
TAFTTD
TAF
KTTD 021130Z 0212/0312 VRB03KT P6SM -SHRA FEW008 BKN040 OVC050
      TEMPO 0212/0216 5SM -RA BR FEW008 BKN022 BKN030
     FM022200 26005KT P6SM VCSH SCT025 BKN050
     FM030000 VRB03KT P6SM VCSH BKN050 BKN080
     FM030700 VRB03KT P6SM -SHRA SCT012 BKN025=

USA.gov is the U.S. government's official web portal to all federal, state and local government web resources and services.